Time;durP1;ratioP1;P1;durP2;ratioP2;P2;SDS_P1;SDS_P2;PMS_P1;PMS_P2;Temp;Humidity;BMP_temperature;BMP_pressure;BME280_temperature;BME280_humidity;BME280_pressure;Samples;Min_cycle;Max_cycle;Signal;HPM_P1;HPM_P2
2021/08/18 00:00:41;;;;;;;10.80;6.53;;;14.80;96.00;;;;;;5030544;28;20055;-69
2021/08/18 00:03:06;;;;;;;11.87;6.23;;;14.70;96.00;;;;;;5032825;28;20507;-69
2021/08/18 00:05:33;;;;;;;9.60;5.63;;;14.70;96.00;;;;;;5033541;28;20413;-69
2021/08/18 00:08:01;;;;;;;7.83;5.63;;;14.70;96.10;;;;;;5033918;28;20483;-69
2021/08/18 00:10:28;;;;;;;8.03;5.67;;;14.70;96.10;;;;;;5033971;28;20054;-69
2021/08/18 00:12:54;;;;;;;8.90;5.73;;;14.70;96.20;;;;;;5033323;28;20071;-69
2021/08/18 00:15:21;;;;;;;9.20;6.63;;;14.60;96.20;;;;;;5034448;28;20057;-69
2021/08/18 00:17:47;;;;;;;8.73;6.27;;;14.60;96.20;;;;;;5033569;28;20050;-71
2021/08/18 00:20:14;;;;;;;9.67;5.97;;;14.60;96.30;;;;;;5033285;28;20049;-69
2021/08/18 00:22:40;;;;;;;10.17;5.97;;;14.60;96.30;;;;;;5033794;28;20049;-70
2021/08/18 00:25:07;;;;;;;9.87;5.77;;;14.60;96.30;;;;;;5034217;28;20041;-70
2021/08/18 00:27:33;;;;;;;10.00;6.27;;;14.60;96.40;;;;;;5033307;28;20508;-70
2021/08/18 00:29:59;;;;;;;11.47;6.27;;;14.60;96.40;;;;;;5033939;28;20057;-70
2021/08/18 00:32:25;;;;;;;11.93;5.70;;;14.60;96.40;;;;;;5033883;28;20054;-70
2021/08/18 00:34:50;;;;;;;13.90;6.27;;;14.60;96.40;;;;;;5032946;28;20107;-70
2021/08/18 00:37:16;;;;;;;8.97;5.60;;;14.60;96.40;;;;;;5034547;28;20049;-69
2021/08/18 00:39:42;;;;;;;10.07;6.60;;;14.60;96.40;;;;;;5033938;28;20149;-70
2021/08/18 00:42:08;;;;;;;9.20;5.87;;;14.60;96.40;;;;;;5032360;28;20055;-70
2021/08/18 00:44:35;;;;;;;10.27;6.43;;;14.50;96.30;;;;;;5032643;28;20096;-70
2021/08/18 00:47:01;;;;;;;9.60;6.23;;;14.50;96.30;;;;;;5032378;28;20332;-70
2021/08/18 00:49:27;;;;;;;10.77;6.00;;;14.50;96.30;;;;;;5032974;28;20115;-70
2021/08/18 00:51:57;;;;;;;11.83;6.97;;;14.50;96.40;;;;;;5033059;28;20112;-70
2021/08/18 00:54:23;;;;;;;10.33;5.93;;;14.50;96.50;;;;;;5032945;28;20103;-70
2021/08/18 00:56:50;;;;;;;8.43;5.73;;;14.50;96.50;;;;;;5033183;28;20547;-70
2021/08/18 00:59:16;;;;;;;11.60;6.93;;;14.50;96.50;;;;;;5033374;28;20053;-70
2021/08/18 01:01:42;;;;;;;11.43;6.07;;;14.50;96.40;;;;;;5032345;28;20588;-70
2021/08/18 01:04:09;;;;;;;10.17;5.77;;;14.50;96.40;;;;;;5033293;28;20045;-70
2021/08/18 01:06:41;;;;;;;9.93;5.65;;;14.50;96.40;;;;;;5032961;28;20462;-70
2021/08/18 01:09:17;;;;;;;10.37;6.23;;;14.50;96.40;;;;;;5032480;28;20156;-70
2021/08/18 01:11:45;;;;;;;9.83;5.37;;;14.50;96.40;;;;;;5032687;28;20475;-70
2021/08/18 01:14:11;;;;;;;9.13;5.87;;;14.60;96.40;;;;;;5031763;28;20137;-70
2021/08/18 01:16:39;;;;;;;12.13;6.90;;;14.50;96.40;;;;;;5032146;28;20395;-70
2021/08/18 01:19:05;;;;;;;11.70;6.50;;;14.50;96.40;;;;;;5032762;28;20061;-69
2021/08/18 01:21:36;;;;;;;9.97;6.73;;;14.60;96.40;;;;;;5033325;28;20049;-69
2021/08/18 01:24:02;;;;;;;12.23;6.53;;;14.60;96.40;;;;;;5032241;28;20053;-70
2021/08/18 01:26:29;;;;;;;11.07;6.30;;;14.60;96.50;;;;;;5033298;28;20521;-69
2021/08/18 01:28:56;;;;;;;9.70;6.23;;;14.60;96.50;;;;;;5032545;28;20068;-69
2021/08/18 01:31:22;;;;;;;11.70;6.37;;;14.60;96.50;;;;;;5031880;28;20053;-69
2021/08/18 01:33:48;;;;;;;11.20;6.63;;;14.60;96.60;;;;;;5032626;28;20175;-70
2021/08/18 01:36:13;;;;;;;10.60;5.73;;;14.60;96.70;;;;;;5032967;28;20072;-69
2021/08/18 01:38:39;;;;;;;8.87;5.97;;;14.60;96.70;;;;;;5031899;28;20053;-70
2021/08/18 01:41:05;;;;;;;11.70;6.90;;;14.60;96.80;;;;;;5032879;28;20478;-69
2021/08/18 01:43:30;;;;;;;10.10;6.40;;;14.60;96.80;;;;;;5032897;28;20512;-69
2021/08/18 01:45:56;;;;;;;10.80;5.43;;;14.60;96.80;;;;;;5031441;28;20049;-69
2021/08/18 01:48:25;;;;;;;11.00;5.93;;;14.60;96.80;;;;;;5032658;28;20049;-69
2021/08/18 01:50:53;;;;;;;8.93;5.87;;;14.60;96.80;;;;;;5031408;28;20045;-68
2021/08/18 01:53:40;;;;;;;9.73;6.03;;;14.60;96.80;;;;;;5032786;28;20069;-70
2021/08/18 01:56:06;;;;;;;9.80;6.53;;;14.60;96.80;;;;;;5032450;28;20167;-70
2021/08/18 01:58:34;;;;;;;9.43;6.37;;;14.60;96.80;;;;;;5031510;28;20106;-70
2021/08/18 02:01:01;;;;;;;9.70;5.80;;;14.60;96.80;;;;;;5032098;28;20045;-70
2021/08/18 02:03:27;;;;;;;8.57;6.23;;;14.60;96.80;;;;;;5032217;28;20072;-70
2021/08/18 02:05:53;;;;;;;10.30;5.93;;;14.60;96.80;;;;;;5031157;28;20490;-70
2021/08/18 02:08:19;;;;;;;8.97;5.57;;;14.60;96.80;;;;;;5032071;28;20103;-70
2021/08/18 02:10:45;;;;;;;10.97;6.00;;;14.50;96.80;;;;;;5031827;28;20053;-70
2021/08/18 02:13:12;;;;;;;9.50;5.90;;;14.50;96.80;;;;;;5031242;28;20061;-70
2021/08/18 02:15:37;;;;;;;10.53;5.93;;;14.50;96.80;;;;;;5032155;28;20364;-70
2021/08/18 02:18:05;;;;;;;7.27;5.27;;;14.40;96.80;;;;;;5031792;28;20132;-69
2021/08/18 02:20:33;;;;;;;11.00;5.90;;;14.40;96.80;;;;;;5031631;28;20049;-70
2021/08/18 02:22:59;;;;;;;11.77;5.87;;;14.40;96.80;;;;;;5031997;28;20128;-69
2021/08/18 02:25:25;;;;;;;10.83;5.83;;;14.40;96.80;;;;;;5031734;28;20136;-69
2021/08/18 02:27:51;;;;;;;10.70;5.57;;;14.30;96.80;;;;;;5030731;28;20108;-70
2021/08/18 02:30:20;;;;;;;14.30;6.37;;;14.30;96.80;;;;;;5031925;28;20087;-70
2021/08/18 02:32:46;;;;;;;9.20;5.97;;;14.30;96.90;;;;;;5031136;28;20049;-69
2021/08/18 02:35:13;;;;;;;10.60;5.80;;;14.30;96.90;;;;;;5031322;28;20064;-69
2021/08/18 02:37:40;;;;;;;9.57;5.60;;;14.30;96.90;;;;;;5031417;28;20053;-69
2021/08/18 02:40:09;;;;;;;8.97;5.80;;;14.30;97.00;;;;;;5030815;28;20045;-69
2021/08/18 02:42:34;;;;;;;9.30;6.77;;;14.30;97.00;;;;;;5031367;28;20057;-69
2021/08/18 02:45:00;;;;;;;11.77;6.47;;;14.30;97.00;;;;;;5031727;28;20042;-70
2021/08/18 02:47:26;;;;;;;11.60;6.20;;;14.30;97.00;;;;;;5030712;28;20049;-70
2021/08/18 02:49:53;;;;;;;10.60;5.87;;;14.30;97.10;;;;;;5031391;28;20136;-70
2021/08/18 02:52:18;;;;;;;12.50;6.53;;;14.30;97.10;;;;;;5031331;28;20049;-70
2021/08/18 02:54:44;;;;;;;11.97;6.60;;;14.40;97.10;;;;;;5030492;28;20384;-70
2021/08/18 02:57:10;;;;;;;9.80;5.93;;;14.30;97.10;;;;;;5031662;28;20050;-70
2021/08/18 02:59:36;;;;;;;10.53;6.60;;;14.40;97.10;;;;;;5031512;28;20124;-70
2021/08/18 03:02:01;;;;;;;12.30;6.47;;;14.40;97.10;;;;;;5030812;28;20053;-70
2021/08/18 03:04:27;;;;;;;9.20;6.27;;;14.40;97.10;;;;;;5031366;28;20073;-69
2021/08/18 03:06:54;;;;;;;11.43;6.50;;;14.50;97.10;;;;;;5031364;28;20046;-70
2021/08/18 03:09:22;;;;;;;11.90;6.47;;;14.50;97.10;;;;;;5030317;28;20096;-70
2021/08/18 03:11:49;;;;;;;11.60;6.20;;;14.50;97.10;;;;;;5030957;28;20087;-70
2021/08/18 03:14:15;;;;;;;14.60;6.67;;;14.50;97.10;;;;;;5031122;28;20073;-70
2021/08/18 03:16:40;;;;;;;15.07;6.80;;;14.50;97.10;;;;;;5030184;28;20503;-70
2021/08/18 03:19:07;;;;;;;12.83;6.80;;;14.50;97.10;;;;;;5030947;28;20517;-70
2021/08/18 03:21:33;;;;;;;9.23;7.00;;;14.60;97.10;;;;;;5031198;28;20123;-71
2021/08/18 03:23:58;;;;;;;11.07;7.10;;;14.60;97.10;;;;;;5030030;28;20049;-70
2021/08/18 03:26:24;;;;;;;14.13;7.03;;;14.60;97.10;;;;;;5030975;28;20045;-70
2021/08/18 03:28:50;;;;;;;12.77;6.63;;;14.60;97.10;;;;;;5031032;28;20053;-70
2021/08/18 03:31:16;;;;;;;10.47;6.70;;;14.60;97.20;;;;;;5030389;28;20049;-70
2021/08/18 03:33:43;;;;;;;11.57;7.00;;;14.60;97.20;;;;;;5030854;28;20052;-70
2021/08/18 03:36:09;;;;;;;15.07;6.97;;;14.60;97.30;;;;;;5030306;28;20148;-70
2021/08/18 03:38:35;;;;;;;15.23;7.53;;;14.60;97.30;;;;;;5033848;28;20053;-70
2021/08/18 03:41:01;;;;;;;19.60;7.67;;;14.60;97.30;;;;;;5034605;28;20049;-69
2021/08/18 03:43:27;;;;;;;14.53;7.40;;;14.60;97.40;;;;;;5034215;28;20052;-69
2021/08/18 03:45:52;;;;;;;11.80;7.00;;;14.60;97.50;;;;;;5034570;28;20458;-69
2021/08/18 03:48:18;;;;;;;13.87;7.00;;;14.60;97.50;;;;;;5034804;28;20049;-69
2021/08/18 03:50:44;;;;;;;14.90;7.50;;;14.60;97.50;;;;;;5033724;28;20072;-70
2021/08/18 03:53:10;;;;;;;11.83;6.23;;;14.70;97.60;;;;;;5034498;28;20046;-69
2021/08/18 03:55:35;;;;;;;13.03;6.50;;;14.60;97.60;;;;;;5034634;28;20124;-70
2021/08/18 03:58:01;;;;;;;10.03;5.90;;;14.70;97.60;;;;;;5033568;28;20517;-70
2021/08/18 04:00:27;;;;;;;11.90;5.83;;;14.70;97.60;;;;;;5034717;28;20049;-70
2021/08/18 04:02:53;;;;;;;11.17;5.90;;;14.70;97.60;;;;;;5033862;28;20053;-69
2021/08/18 04:05:18;;;;;;;10.40;5.20;;;14.70;97.50;;;;;;5033844;28;20137;-70
2021/08/18 04:07:44;;;;;;;8.57;5.57;;;14.70;97.50;;;;;;5034077;28;20136;-69
2021/08/18 04:10:10;;;;;;;9.53;5.50;;;14.70;97.40;;;;;;5034182;28;20443;-70
2021/08/18 04:12:56;;;;;;;10.63;5.60;;;14.70;97.40;;;;;;5033575;28;20056;-70
2021/08/18 04:15:33;;;;;;;11.13;5.23;;;14.70;97.70;;;;;;5034206;28;20057;-69
2021/08/18 04:17:59;;;;;;;12.77;5.73;;;14.70;97.30;;;;;;5033774;28;20057;-69
2021/08/18 04:20:25;;;;;;;10.07;6.00;;;14.70;97.30;;;;;;5033334;28;20061;-69
2021/08/18 04:22:51;;;;;;;12.93;5.83;;;14.70;97.30;;;;;;5033911;28;20061;-70
2021/08/18 04:25:18;;;;;;;9.87;5.77;;;14.70;97.30;;;;;;5034081;28;20103;-69
2021/08/18 04:27:44;;;;;;;11.60;5.70;;;14.70;97.20;;;;;;5033241;28;20053;-70
2021/08/18 04:30:12;;;;;;;9.13;6.20;;;14.80;97.20;;;;;;5034297;28;20049;-69
2021/08/18 04:32:38;;;;;;;11.47;6.20;;;14.80;97.20;;;;;;5037963;28;20049;-69
2021/08/18 04:35:05;;;;;;;10.47;5.63;;;14.80;97.20;;;;;;5044702;28;20044;-69
2021/08/18 04:37:40;;;;;;;11.90;6.30;;;14.80;97.20;;;;;;5043398;28;20049;-69
2021/08/18 04:40:09;;;;;;;12.37;6.23;;;14.80;97.20;;;;;;5041935;28;20128;-69
2021/08/18 04:42:36;;;;;;;13.07;6.43;;;14.90;97.20;;;;;;5043197;28;20045;-69
2021/08/18 04:45:07;;;;;;;10.90;5.90;;;14.90;97.20;;;;;;5044138;28;20045;-69
2021/08/18 04:47:33;;;;;;;13.67;6.00;;;14.90;97.10;;;;;;5042764;28;20046;-69
2021/08/18 04:49:59;;;;;;;10.97;5.97;;;14.90;97.10;;;;;;5041967;28;20793;-69
2021/08/18 04:52:25;;;;;;;12.37;6.17;;;14.90;97.10;;;;;;5044081;28;20045;-70
2021/08/18 04:54:51;;;;;;;9.87;5.87;;;14.90;97.10;;;;;;5041753;28;20195;-69
2021/08/18 04:57:17;;;;;;;11.43;5.60;;;14.90;97.10;;;;;;5042357;28;20041;-69
2021/08/18 04:59:43;;;;;;;13.53;6.00;;;15.00;97.50;;;;;;5043513;28;20045;-69
2021/08/18 05:02:08;;;;;;;11.50;6.27;;;15.00;97.10;;;;;;5041861;28;20053;-69
2021/08/18 05:04:34;;;;;;;9.87;5.60;;;15.00;97.10;;;;;;5042689;28;20542;-69
2021/08/18 05:07:00;;;;;;;12.53;5.90;;;15.00;97.10;;;;;;5043786;28;21024;-70
2021/08/18 05:09:25;;;;;;;11.40;5.90;;;15.00;97.00;;;;;;5040935;28;20131;-70
2021/08/18 05:11:53;;;;;;;11.07;5.63;;;15.00;97.00;;;;;;5042687;28;20052;-70
2021/08/18 05:14:19;;;;;;;11.10;6.43;;;15.00;96.90;;;;;;5043265;28;20121;-70
2021/08/18 05:16:46;;;;;;;12.93;5.47;;;15.10;97.00;;;;;;5040889;28;20060;-71
2021/08/18 05:19:11;;;;;;;12.93;5.77;;;15.10;97.00;;;;;;5042736;28;20060;-69
2021/08/18 05:21:37;;;;;;;9.57;4.97;;;15.10;97.00;;;;;;5042485;28;20087;-70
2021/08/18 05:24:06;;;;;;;10.23;5.47;;;15.10;97.00;;;;;;5042025;28;20128;-69
2021/08/18 05:26:35;;;;;;;11.00;5.37;;;15.10;97.10;;;;;;5040997;28;20489;-69
2021/08/18 05:29:03;;;;;;;12.97;5.97;;;15.20;97.10;;;;;;5042398;28;20044;-70
2021/08/18 05:31:35;;;;;;;15.20;5.47;;;15.20;97.10;;;;;;5042357;28;20551;-72
2021/08/18 05:34:00;;;;;;;13.07;6.00;;;15.20;97.10;;;;;;5040559;28;20049;-71
2021/08/18 05:36:27;;;;;;;10.97;5.93;;;15.20;97.10;;;;;;5042749;28;20045;-69
2021/08/18 05:38:57;;;;;;;9.63;5.20;;;15.20;97.10;;;;;;5042199;28;20137;-70
2021/08/18 05:41:22;;;;;;;12.47;6.13;;;15.30;97.10;;;;;;5041037;28;20132;-70
2021/08/18 05:43:52;;;;;;;10.13;5.37;;;15.30;97.10;;;;;;5041353;28;20041;-70
2021/08/18 05:46:18;;;;;;;12.70;5.70;;;15.30;97.20;;;;;;5042349;28;20489;-70
2021/08/18 05:48:43;;;;;;;12.00;5.40;;;15.30;97.20;;;;;;5040720;28;20132;-72
2021/08/18 05:51:09;;;;;;;11.70;6.40;;;15.30;97.10;;;;;;5041578;28;20391;-72
2021/08/18 05:53:35;;;;;;;11.13;5.80;;;15.30;97.10;;;;;;5042160;28;20494;-71
2021/08/18 05:56:01;;;;;;;10.03;5.07;;;15.40;97.10;;;;;;5039916;28;20136;-71
2021/08/18 05:58:26;;;;;;;9.10;5.47;;;15.40;97.20;;;;;;5051084;28;20132;-71
2021/08/18 06:00:52;;;;;;;11.37;5.60;;;15.40;97.10;;;;;;5050758;28;20052;-70
2021/08/18 06:03:18;;;;;;;13.23;6.10;;;15.50;97.10;;;;;;5052054;28;20143;-70
2021/08/18 06:05:43;;;;;;;12.87;4.60;;;15.50;97.10;;;;;;5050754;28;20056;-71
2021/08/18 06:08:09;;;;;;;8.30;4.77;;;15.50;97.00;;;;;;5051790;28;20049;-70
2021/08/18 06:10:35;;;;;;;9.07;4.97;;;15.50;97.00;;;;;;5051288;28;20485;-70
2021/08/18 06:13:02;;;;;;;9.40;4.70;;;15.60;97.00;;;;;;5050724;28;20058;-69
2021/08/18 06:15:31;;;;;;;7.33;4.47;;;15.60;97.00;;;;;;5051587;28;20128;-70
2021/08/18 06:17:57;;;;;;;9.30;4.90;;;15.60;96.90;;;;;;5050559;28;20053;-70
2021/08/18 06:20:24;;;;;;;7.83;4.53;;;15.70;97.00;;;;;;5051375;28;20188;-70
2021/08/18 06:22:49;;;;;;;7.73;3.70;;;15.70;96.90;;;;;;5051353;28;20052;-71
2021/08/18 06:25:16;;;;;;;7.27;4.00;;;15.70;96.80;;;;;;5050509;28;20049;-71
2021/08/18 06:27:42;;;;;;;8.40;4.20;;;15.70;96.70;;;;;;5051344;28;20071;-71
2021/08/18 06:30:08;;;;;;;6.13;3.20;;;15.70;96.60;;;;;;5051048;28;20048;-71
2021/08/18 06:32:35;;;;;;;7.27;3.57;;;15.80;96.60;;;;;;5050698;28;20045;-70
2021/08/18 06:35:01;;;;;;;7.03;3.77;;;15.80;96.50;;;;;;5051376;28;20153;-71
2021/08/18 06:37:26;;;;;;;6.07;3.47;;;15.80;96.50;;;;;;5051442;28;20420;-72
2021/08/18 06:39:52;;;;;;;5.43;3.63;;;15.80;96.50;;;;;;5050407;28;20049;-71
2021/08/18 06:42:18;;;;;;;6.57;3.63;;;15.80;96.40;;;;;;5051490;28;20052;-73
2021/08/18 06:44:44;;;;;;;5.43;3.20;;;15.80;96.40;;;;;;5051668;28;20475;-71
2021/08/18 06:47:10;;;;;;;7.60;3.43;;;15.90;96.40;;;;;;5050772;28;20045;-71
2021/08/18 06:49:36;;;;;;;7.17;3.33;;;15.90;96.40;;;;;;5051362;28;20048;-70
2021/08/18 06:52:02;;;;;;;6.00;3.63;;;15.90;96.40;;;;;;5051171;28;20100;-71
2021/08/18 06:54:28;;;;;;;6.93;3.20;;;15.90;96.40;;;;;;5050498;28;20045;-71
2021/08/18 06:56:54;;;;;;;4.77;3.20;;;15.90;96.40;;;;;;5051198;28;20063;-71
2021/08/18 06:59:20;;;;;;;5.83;3.23;;;15.90;96.40;;;;;;5051034;28;20430;-70
2021/08/18 07:01:45;;;;;;;7.90;3.23;;;16.00;96.40;;;;;;5050321;28;20061;-71
2021/08/18 07:04:11;;;;;;;5.13;3.10;;;16.00;96.40;;;;;;5051115;28;20053;-70
2021/08/18 07:06:37;;;;;;;6.87;2.70;;;16.00;96.40;;;;;;5051164;28;20122;-70
2021/08/18 07:09:02;;;;;;;7.20;3.53;;;16.00;96.40;;;;;;5049673;28;20087;-70
2021/08/18 07:11:28;;;;;;;5.13;3.37;;;16.10;96.30;;;;;;5051067;28;20049;-71
2021/08/18 07:13:59;;;;;;;6.40;3.13;;;16.10;96.30;;;;;;5054751;28;20119;-70
2021/08/18 07:16:30;;;;;;;6.93;3.30;;;16.20;96.30;;;;;;5054289;28;20497;-69
2021/08/18 07:18:56;;;;;;;6.43;3.40;;;16.20;96.30;;;;;;5054773;28;20098;-70
2021/08/18 07:21:22;;;;;;;4.97;2.60;;;16.30;96.30;;;;;;5054321;28;20057;-69
2021/08/18 07:23:49;;;;;;;6.67;3.07;;;16.30;96.10;;;;;;5054644;28;20102;-70
2021/08/18 07:26:18;;;;;;;6.53;3.47;;;16.40;96.00;;;;;;5055545;28;20049;-70
2021/08/18 07:28:44;;;;;;;4.67;3.00;;;16.40;95.90;;;;;;5054344;28;20045;-70
2021/08/18 07:31:11;;;;;;;8.17;3.57;;;16.40;95.80;;;;;;5055235;28;20056;-70
2021/08/18 07:33:36;;;;;;;5.57;3.10;;;16.40;95.80;;;;;;5054584;28;20052;-72
2021/08/18 07:36:03;;;;;;;9.43;3.00;;;16.50;95.70;;;;;;5053799;28;20045;-73
2021/08/18 07:38:29;;;;;;;4.97;3.03;;;16.50;95.60;;;;;;5054819;28;20107;-70
2021/08/18 07:40:54;;;;;;;6.43;3.13;;;16.50;96.00;;;;;;5054183;28;20041;-71
2021/08/18 07:43:20;;;;;;;5.00;3.23;;;16.50;95.60;;;;;;5053796;28;20045;-70
2021/08/18 07:45:46;;;;;;;7.13;3.60;;;16.50;95.50;;;;;;5053862;28;20053;-70
2021/08/18 07:48:11;;;;;;;6.13;3.17;;;16.60;95.60;;;;;;5054785;28;20073;-70
2021/08/18 07:50:37;;;;;;;6.37;3.07;;;16.60;95.60;;;;;;5052860;28;20048;-69
2021/08/18 07:53:02;;;;;;;5.57;3.30;;;16.60;95.60;;;;;;5052155;28;20049;-70
2021/08/18 07:55:28;;;;;;;6.73;3.10;;;16.70;95.40;;;;;;5052859;28;20048;-69
2021/08/18 07:57:54;;;;;;;6.97;3.43;;;16.70;95.30;;;;;;5051533;28;20413;-69
2021/08/18 08:00:20;;;;;;;4.20;2.67;;;16.70;95.20;;;;;;5052703;28;20132;-69
2021/08/18 08:02:46;;;;;;;7.07;2.93;;;16.70;95.20;;;;;;5052323;28;20052;-69
2021/08/18 08:05:16;;;;;;;6.97;3.27;;;16.80;95.10;;;;;;5052311;28;20067;-70
2021/08/18 08:07:43;;;;;;;5.43;3.07;;;16.80;95.10;;;;;;5054089;28;20116;-69
2021/08/18 08:10:10;;;;;;;5.63;2.90;;;16.80;95.00;;;;;;5053958;28;20498;-69
2021/08/18 08:12:36;;;;;;;5.47;2.80;;;16.90;95.00;;;;;;5052980;28;20057;-68
2021/08/18 08:15:05;;;;;;;3.97;2.80;;;16.90;94.90;;;;;;5053431;28;20115;-70
2021/08/18 08:17:31;;;;;;;5.97;2.90;;;17.00;94.80;;;;;;5052881;28;20073;-70
2021/08/18 08:19:57;;;;;;;8.57;2.83;;;17.00;94.70;;;;;;5053865;28;20410;-72
2021/08/18 08:22:22;;;;;;;5.77;3.20;;;17.10;94.70;;;;;;5053674;28;20052;-70
2021/08/18 08:24:48;;;;;;;6.70;2.77;;;17.20;94.50;;;;;;5052159;28;20045;-69
2021/08/18 08:27:14;;;;;;;5.10;2.93;;;17.20;94.40;;;;;;5053119;28;20095;-70
2021/08/18 08:29:39;;;;;;;4.47;2.80;;;17.20;94.40;;;;;;5052421;28;20079;-70
2021/08/18 08:32:05;;;;;;;10.37;3.10;;;17.30;94.30;;;;;;5050768;28;20068;-69
2021/08/18 08:34:31;;;;;;;5.60;2.93;;;17.40;94.30;;;;;;5051491;28;20118;-69
2021/08/18 08:36:58;;;;;;;8.53;3.50;;;17.40;94.30;;;;;;5051367;28;20386;-70
2021/08/18 08:39:23;;;;;;;5.63;3.30;;;17.50;94.30;;;;;;5052007;28;20433;-69
2021/08/18 08:41:49;;;;;;;9.43;3.37;;;17.60;94.00;;;;;;5052603;28;20106;-68
2021/08/18 08:44:17;;;;;;;6.30;2.63;;;17.70;93.80;;;;;;5053179;28;20048;-73
2021/08/18 08:46:46;;;;;;;4.40;2.50;;;17.70;93.50;;;;;;5052404;28;20494;-68
2021/08/18 08:49:12;;;;;;;6.87;2.83;;;17.70;93.40;;;;;;5053387;28;20056;-66
2021/08/18 08:51:38;;;;;;;9.40;3.20;;;17.80;93.30;;;;;;5053208;28;20098;-68
2021/08/18 08:54:04;;;;;;;7.53;3.20;;;17.80;93.10;;;;;;5052512;28;20041;-69
2021/08/18 08:56:29;;;;;;;6.80;3.20;;;17.80;93.00;;;;;;5053071;28;20387;-68
2021/08/18 08:58:55;;;;;;;6.93;3.10;;;17.80;92.90;;;;;;5053218;28;20060;-67
2021/08/18 09:01:20;;;;;;;7.90;3.47;;;17.80;93.00;;;;;;5052387;28;20060;-68
2021/08/18 09:03:46;;;;;;;5.83;3.30;;;17.80;93.10;;;;;;5052868;28;20544;-67
2021/08/18 09:06:19;;;;;;;6.03;4.20;;;17.90;93.40;;;;;;5053030;28;20119;-69
2021/08/18 09:08:52;;;;;;;5.43;3.20;;;17.90;93.70;;;;;;5052241;28;20049;-67
2021/08/18 09:11:20;;;;;;;6.63;3.57;;;17.90;93.90;;;;;;5052998;28;20079;-69
2021/08/18 09:13:47;;;;;;;9.97;3.87;;;17.90;93.90;;;;;;5051132;28;20103;-67
2021/08/18 09:16:14;;;;;;;9.83;4.07;;;18.00;93.90;;;;;;5051605;28;20045;-68
2021/08/18 09:18:46;;;;;;;6.83;3.67;;;18.00;93.90;;;;;;5050196;28;20061;-68
2021/08/18 09:21:34;;;;;;;;;;;18.10;93.70;;;;;;5051212;28;20072;-67
2021/08/18 09:24:11;;;;;;;8.90;3.87;;;18.10;93.10;;;;;;5052272;28;19920;-68
2021/08/18 09:26:41;;;;;;;6.97;4.10;;;18.20;93.60;;;;;;5052152;28;20493;-67
2021/08/18 09:29:07;;;;;;;5.93;3.83;;;18.20;93.50;;;;;;5051913;28;20067;-68
2021/08/18 09:31:33;;;;;;;8.83;4.00;;;18.20;93.10;;;;;;5052459;28;20053;-68
2021/08/18 09:33:59;;;;;;;6.87;4.00;;;18.30;92.90;;;;;;5052010;28;20147;-68
2021/08/18 09:36:29;;;;;;;6.47;3.90;;;18.30;92.70;;;;;;5050965;28;20059;-67
2021/08/18 09:39:23;;;;;;;6.78;3.60;;;18.30;93.00;;;;;;5051784;28;20056;-67
2021/08/18 09:41:50;;;;;;;7.00;3.37;;;18.40;92.60;;;;;;5051624;28;20230;-67
2021/08/18 09:44:18;;;;;;;8.33;3.93;;;18.50;92.50;;;;;;5051658;28;20100;-70
2021/08/18 09:46:43;;;;;;;5.47;3.77;;;18.50;92.30;;;;;;5051631;28;20128;-68
2021/08/18 09:49:11;;;;;;;6.63;4.07;;;18.60;92.10;;;;;;5050266;28;20207;-68
2021/08/18 09:51:37;;;;;;;8.43;3.97;;;18.70;92.00;;;;;;5051268;28;20067;-67
2021/08/18 09:54:17;;;;;;;5.63;3.77;;;18.80;92.00;;;;;;5051442;28;20116;-68
2021/08/18 09:56:45;;;;;;;7.00;4.50;;;18.90;91.90;;;;;;5050786;28;20064;-68
2021/08/18 09:59:11;;;;;;;5.77;3.87;;;19.00;91.60;;;;;;5051406;28;20078;-68
2021/08/18 10:01:38;;;;;;;6.17;4.03;;;19.00;91.30;;;;;;5051673;28;20124;-67
2021/08/18 10:04:04;;;;;;;4.97;3.70;;;19.00;91.10;;;;;;5050845;28;20125;-69
2021/08/18 10:06:31;;;;;;;6.97;4.40;;;19.00;91.00;;;;;;5051870;28;20041;-69
2021/08/18 10:08:57;;;;;;;9.27;3.97;;;19.00;91.10;;;;;;5051866;28;20053;-68
2021/08/18 10:11:26;;;;;;;7.93;4.47;;;19.10;91.00;;;;;;5050868;28;20516;-67
2021/08/18 10:13:52;;;;;;;6.57;4.20;;;19.10;90.80;;;;;;5051375;28;20061;-68
2021/08/18 10:16:19;;;;;;;6.60;4.43;;;19.10;90.60;;;;;;5051405;28;20449;-68
2021/08/18 10:18:50;;;;;;;6.07;4.63;;;19.10;90.60;;;;;;5050150;28;20052;-67
2021/08/18 10:21:25;;;;;;;5.07;4.00;;;19.20;90.50;;;;;;5051494;28;20045;-70
2021/08/18 10:23:57;;;;;;;6.27;3.53;;;19.20;90.30;;;;;;5051376;28;20136;-70
2021/08/18 10:26:41;;;;;;;6.33;4.23;;;19.10;90.20;;;;;;5050977;28;20072;-71
2021/08/18 10:29:09;;;;;;;7.17;4.40;;;19.10;90.20;;;;;;5051596;28;20132;-70
2021/08/18 10:31:41;;;;;;;5.70;4.23;;;19.00;90.20;;;;;;5050468;28;20045;-71
2021/08/18 10:34:10;;;;;;;7.37;5.10;;;19.00;90.30;;;;;;5051513;28;20122;-70
2021/08/18 10:36:42;;;;;;;9.90;5.80;;;18.90;90.30;;;;;;5051299;28;20144;-72
2021/08/18 10:39:22;;;;;;;9.60;5.87;;;18.90;90.40;;;;;;5050390;28;20175;-71
2021/08/18 10:42:10;;;;;;;9.60;5.95;;;18.90;90.40;;;;;;5051100;28;20049;-71
2021/08/18 10:44:43;;;;;;;8.37;6.30;;;18.90;90.40;;;;;;5051324;28;20079;-71
2021/08/18 10:47:22;;;;;;;11.07;5.57;;;18.90;90.50;;;;;;5050400;28;20130;-71
2021/08/18 10:50:23;;;;;;;11.20;5.57;;;19.00;90.60;;;;;;5050890;28;20128;-71
2021/08/18 10:52:50;;;;;;;8.07;6.03;;;19.10;90.50;;;;;;5049330;28;20056;-70
2021/08/18 10:55:23;;;;;;;6.43;5.60;;;19.30;90.40;;;;;;5050832;28;20512;-69
2021/08/18 10:57:53;;;;;;;6.97;5.17;;;19.30;90.00;;;;;;5050383;28;20179;-70
2021/08/18 11:00:23;;;;;;;6.90;5.73;;;19.30;89.20;;;;;;5050446;28;20097;-70
2021/08/18 11:02:57;;;;;;;6.83;5.23;;;19.30;89.10;;;;;;5050405;28;20132;-70
2021/08/18 11:05:25;;;;;;;8.03;5.27;;;19.20;89.10;;;;;;5050942;28;20052;-70
2021/08/18 11:08:33;;;;;;;8.30;5.20;;;19.20;89.10;;;;;;5050234;28;20049;-71
2021/08/18 11:10:58;;;;;;;11.43;5.50;;;19.10;89.30;;;;;;5049994;28;20080;-70
2021/08/18 11:13:50;;;;;;;7.33;4.83;;;19.00;89.80;;;;;;5050133;28;20080;-70
2021/08/18 11:16:26;;;;;;;6.80;5.55;;;19.10;89.50;;;;;;5050620;28;20053;-73
2021/08/18 11:18:56;;;;;;;8.17;5.97;;;19.10;89.20;;;;;;5050058;28;20057;-71
2021/08/18 11:21:25;;;;;;;7.80;5.70;;;19.20;89.10;;;;;;5049889;28;20516;-73
2021/08/18 11:24:00;;;;;;;7.83;5.47;;;19.10;89.20;;;;;;5050032;28;20056;-70
2021/08/18 11:26:28;;;;;;;10.63;6.80;;;19.10;88.40;;;;;;5050288;28;20095;-72
2021/08/18 11:28:59;;;;;;;7.70;5.10;;;19.10;88.40;;;;;;5049274;28;20099;-71
2021/08/18 11:31:34;;;;;;;4.85;3.80;;;19.10;87.60;;;;;;5050051;28;20053;-71
2021/08/18 11:34:01;;;;;;;6.67;4.93;;;19.10;86.60;;;;;;5050004;28;20131;-73
2021/08/18 11:36:32;;;;;;;7.57;4.13;;;19.10;86.60;;;;;;5049536;28;20466;-71
2021/08/18 11:38:59;;;;;;;;;;;19.20;86.00;;;;;;5050788;28;20468;-72
2021/08/18 11:41:36;;;;;;;9.10;4.07;;;19.20;84.70;;;;;;5050027;28;19927;-71
2021/08/18 11:44:02;;;;;;;5.73;4.23;;;19.40;84.60;;;;;;5050247;28;20114;-71
2021/08/18 11:46:29;;;;;;;6.53;4.37;;;19.40;85.10;;;;;;5050468;28;20551;-74
2021/08/18 11:49:06;;;;;;;7.57;4.53;;;19.50;84.90;;;;;;5049308;28;20059;-71
2021/08/18 11:51:32;;;;;;;6.17;4.87;;;19.60;84.30;;;;;;5050518;28;20080;-72
2021/08/18 11:54:01;;;;;;;7.17;4.77;;;19.60;83.70;;;;;;5050026;28;20048;-72
2021/08/18 11:56:28;;;;;;;5.93;4.67;;;19.60;83.70;;;;;;5049471;28;20049;-71
2021/08/18 11:58:59;;;;;;;6.67;3.90;;;19.70;83.40;;;;;;5051772;28;20053;-71
2021/08/18 12:01:24;;;;;;;6.07;3.38;;;19.80;83.00;;;;;;5053703;28;20072;-70
2021/08/18 12:03:51;;;;;;;7.10;3.97;;;19.80;82.70;;;;;;5053011;28;20091;-69
2021/08/18 12:06:37;;;;;;;3.97;3.20;;;19.90;82.00;;;;;;5053756;28;20041;-71
2021/08/18 12:09:05;;;;;;;6.47;3.43;;;20.10;81.20;;;;;;5053478;28;20505;-73
2021/08/18 12:11:33;;;;;;;6.77;3.77;;;20.10;80.70;;;;;;5053137;28;20045;-71
2021/08/18 12:14:08;;;;;;;5.97;3.60;;;20.20;80.10;;;;;;5053943;28;20061;-74
2021/08/18 12:16:33;;;;;;;4.27;3.17;;;20.10;79.80;;;;;;5053621;28;20045;-75
2021/08/18 12:19:35;;;;;;;6.43;3.47;;;20.10;79.90;;;;;;5053562;28;20052;-73
2021/08/18 12:22:07;;;;;;;4.00;2.70;;;20.10;78.70;;;;;;5034806;28;20056;-74
2021/08/18 12:24:34;;;;;;;5.50;3.10;;;20.10;80.00;;;;;;5048773;28;20137;-71
2021/08/18 12:27:08;;;;;;;23.87;5.90;;;20.10;79.60;;;;;;5050107;28;20045;-74
2021/08/18 12:29:35;;;;;;;7.03;3.00;;;20.20;79.20;;;;;;5050598;28;20064;-71
2021/08/18 12:32:11;;;;;;;6.70;3.10;;;20.20;79.50;;;;;;5048478;28;20057;-69
2021/08/18 12:34:55;;;;;;;6.67;3.23;;;20.20;79.70;;;;;;5036348;28;20049;-69
2021/08/18 12:37:23;;;;;;;5.33;3.00;;;20.20;79.80;;;;;;5029977;28;20050;-68
2021/08/18 12:40:00;;;;;;;5.60;3.00;;;20.20;80.10;;;;;;5035368;28;20071;-68
2021/08/18 12:42:28;;;;;;;3.90;2.60;;;20.20;80.50;;;;;;5029400;28;20527;-68
2021/08/18 12:45:09;;;;;;;4.07;2.70;;;20.30;80.40;;;;;;5029692;28;20509;-69
2021/08/18 12:47:39;;;;;;;4.60;2.70;;;20.30;79.70;;;;;;5030075;28;20049;-69